Maimiti — PBIJ — position and weather

sailwx.info

Track history (hours):
 
Tides and Currents Weather Stations Pressure Air Temp Water Temp Dewpoint Dewpoint Depression Visibility Wind Speed Wind Dir Waves Ship Positions

Maimiti

Last reported at 2014-Oct-30 22:33 UTC. Time now 2014-Oct-30 22:51 UTC.
Position N 51°23' E 004°03'.

Length 87 m; draft 4.4 m.

Type: Cargo ship. MMSI: 244312000.

Date/timePositionNaut miles runAvg speedWind from/ knotsBaromVisibWave heightAir tempDewpointWater temp
2014-Oct-30 22:33N 51°23' E 004°03'9 9.4
2014-Oct-30 21:34N 51°19' E 004°16'3 2.9
2014-Oct-30 20:31N 51°17' E 004°20'1 1.0
2014-Oct-30 19:33N 51°16' E 004°21'2 2.1
2014-Oct-30 18:33N 51°15' E 004°24'0 0.0
2014-Oct-30 17:33N 51°15' E 004°24'0 0.0
2014-Oct-30 16:33N 51°15' E 004°24'0 0.0
2014-Oct-30 15:33N 51°15' E 004°24'0 0.0
2014-Oct-30 14:33N 51°15' E 004°24'0 0.0
2014-Oct-30 13:33N 51°15' E 004°24'0 0.0
2014-Oct-30 12:33N 51°15' E 004°24'0 0.0
2014-Oct-30 11:33N 51°15' E 004°24'0 0.0
2014-Oct-30 10:33N 51°15' E 004°24'0 0.0
2014-Oct-30 09:33N 51°15' E 004°24'0 0.0
2014-Oct-30 08:33N 51°15' E 004°24'0 0.0
2014-Oct-30 07:33N 51°15' E 004°24'0 0.0
2014-Oct-30 06:33N 51°15' E 004°24'0 0.0
2014-Oct-30 05:33N 51°15' E 004°24'0 0.0
2014-Oct-30 04:33N 51°15' E 004°24'0 0.0
2014-Oct-30 03:33N 51°15' E 004°24'0 0.0
2014-Oct-30 02:33N 51°15' E 004°24'0 0.0
2014-Oct-30 01:33N 51°15' E 004°24'0 0.0
2014-Oct-30 00:33N 51°15' E 004°24'0 0.0
2014-Oct-29 23:33N 51°15' E 004°24'0 0.0
2014-Oct-29 22:33N 51°15' E 004°24'0 0.0
2014-Oct-29 21:33N 51°15' E 004°24'0 0.0
2014-Oct-29 20:33N 51°15' E 004°24'0 0.0
2014-Oct-29 19:33N 51°15' E 004°24'0 0.0
2014-Oct-29 18:33N 51°15' E 004°24'0 0.0
2014-Oct-29 17:33N 51°15' E 004°24'0 0.0
2014-Oct-29 16:33N 51°15' E 004°24'0 0.0
2014-Oct-29 15:33N 51°15' E 004°24'0 0.0
2014-Oct-29 14:33N 51°15' E 004°24'0 0.0
2014-Oct-29 13:33N 51°15' E 004°24'0 0.0
2014-Oct-29 12:33N 51°15' E 004°24'0 0.0
2014-Oct-29 11:33N 51°15' E 004°24'1 1.3
2014-Oct-29 10:33N 51°15' E 004°22'7 6.3
2014-Oct-29 09:31N 51°21' E 004°17'0 0.0
2014-Oct-29 08:33N 51°21' E 004°17'1 1.0
2014-Oct-29 07:33N 51°21' E 004°16'5 5.2
2014-Oct-29 06:33N 51°22' E 004°08'7 6.6
2014-Oct-29 05:33N 51°25' E 003°58'9 9.5
2014-Oct-29 04:33N 51°23' E 003°44'1111.3
2014-Oct-29 03:33N 51°30' E 003°29'1611.5
2014-Oct-29 02:10N 51°43' E 003°14'5511.0
2014-Oct-28 21:08N 52°19' E 002°06'711.5
2014-Oct-28 20:33N 52°24' E 002°00'1111.3
2014-Oct-28 19:33N 52°33' E 001°49'4 3.6
2014-Oct-28 18:33N 52°35' E 001°44'0 0.0
2014-Oct-28 17:33N 52°35' E 001°44'0 0.0
2014-Oct-28 16:33N 52°35' E 001°44'0 0.0
2014-Oct-28 15:33N 52°35' E 001°44'0 0.0
2014-Oct-28 14:33N 52°35' E 001°44'0 0.0
2014-Oct-28 13:33N 52°35' E 001°44'0 0.0
2014-Oct-28 12:33N 52°35' E 001°44'0 0.0
2014-Oct-28 11:33N 52°35' E 001°44'0 0.0
2014-Oct-28 10:33N 52°35' E 001°44'0 0.0
2014-Oct-28 09:33N 52°35' E 001°44'0 0.0
2014-Oct-28 08:33N 52°35' E 001°44'0 0.0
2014-Oct-28 07:33N 52°35' E 001°44'0 0.0
2014-Oct-28 06:33N 52°35' E 001°44'0 0.0
2014-Oct-28 05:33N 52°35' E 001°44'0 0.0
2014-Oct-28 04:33N 52°35' E 001°44'0 0.0
2014-Oct-28 03:34N 52°35' E 001°44'0 0.0
2014-Oct-28 02:33N 52°35' E 001°44'0 0.0
2014-Oct-28 01:33N 52°35' E 001°44'0 0.0
2014-Oct-28 00:33N 52°35' E 001°44'0 0.0
2014-Oct-27 23:33N 52°35' E 001°44'0 0.0
2014-Oct-27 22:33N 52°35' E 001°44'0 0.0
2014-Oct-27 21:33N 52°35' E 001°44'0 0.0
2014-Oct-27 20:33N 52°35' E 001°44'0 0.0
2014-Oct-27 19:33N 52°35' E 001°44'0 0.0
2014-Oct-27 18:33N 52°35' E 001°44'0 0.0
2014-Oct-27 17:33N 52°35' E 001°44'0 0.0
2014-Oct-27 16:33N 52°35' E 001°44'0 0.0
2014-Oct-27 15:33N 52°35' E 001°44'0 0.0
2014-Oct-27 14:33N 52°35' E 001°44'0 0.0
2014-Oct-27 13:33N 52°35' E 001°44'0 0.0
2014-Oct-27 12:33N 52°35' E 001°44'0 0.0
2014-Oct-27 11:33N 52°35' E 001°44'0 0.0
2014-Oct-27 10:33N 52°35' E 001°44'0 0.0
2014-Oct-27 09:33N 52°35' E 001°44'0 0.0
2014-Oct-27 08:33N 52°35' E 001°44'0 0.0
2014-Oct-27 07:33N 52°35' E 001°44'0 0.0
2014-Oct-27 06:33N 52°35' E 001°44'0 0.0
2014-Oct-27 05:33N 52°35' E 001°44'0 0.0
2014-Oct-27 04:33N 52°35' E 001°44'0 0.0
2014-Oct-27 03:33N 52°35' E 001°44'0 0.0
2014-Oct-27 02:33N 52°35' E 001°44'0 0.0
2014-Oct-27 01:33N 52°35' E 001°44'0 0.0
2014-Oct-27 00:34N 52°35' E 001°44'0 0.0
2014-Oct-26 23:33N 52°35' E 001°44'0 0.0
2014-Oct-26 22:33N 52°35' E 001°44'0 0.0
2014-Oct-26 21:33N 52°35' E 001°44'0 0.0
2014-Oct-26 20:33N 52°35' E 001°44'0 0.0
2014-Oct-26 19:33N 52°35' E 001°44'0 0.0
2014-Oct-26 18:33N 52°35' E 001°44'0 0.0
2014-Oct-26 17:33N 52°35' E 001°44'0 0.0
2014-Oct-26 16:33N 52°35' E 001°44'0 0.0
2014-Oct-26 15:33N 52°35' E 001°44'0 0.0
2014-Oct-26 14:33N 52°35' E 001°44'0 0.0
2014-Oct-26 13:33N 52°35' E 001°44'0 0.0
2014-Oct-26 12:33N 52°35' E 001°44'2 1.5
2014-Oct-26 11:33N 52°34' E 001°45'0 0.4
2014-Oct-26 10:33N 52°33' E 001°45'0 0.0
2014-Oct-26 09:33N 52°33' E 001°45'0 0.0
2014-Oct-26 08:33N 52°33' E 001°45'0 0.0
2014-Oct-26 07:33N 52°33' E 001°45'0 0.1
2014-Oct-26 06:33N 52°33' E 001°45'0 0.2
2014-Oct-26 05:33N 52°33' E 001°45'0 0.0
2014-Oct-26 04:33N 52°34' E 001°45'0 0.0
2014-Oct-26 03:33N 52°33' E 001°45'0 0.0
2014-Oct-26 02:33N 52°33' E 001°45'0 0.0
2014-Oct-26 01:33N 52°33' E 001°45'4 4.3
2014-Oct-26 00:33N 52°33' E 001°52'12310.2
2014-Oct-25 12:33N 53°32' E 004°52'1111.2
2014-Oct-25 11:33N 53°35' E 005°10'1110.7
2014-Oct-25 10:33N 53°38' E 005°27'1010.0
2014-Oct-25 09:33N 53°42' E 005°43'6510.1
2014-Oct-25 03:09N 53°60' E 007°29'710.9
2014-Oct-25 02:33N 54°01' E 007°39'1110.8
2014-Oct-25 01:33N 54°02' E 007°58'1010.3
2014-Oct-25 00:33N 54°01' E 008°15'1010.1
2014-Oct-24 23:33N 53°58' E 008°32'8 8.2
2014-Oct-24 22:33N 53°53' E 008°42'8 7.6
2014-Oct-24 21:33N 53°51' E 008°55'1210.8
2014-Oct-24 20:29N 53°53' E 009°14'1612.6
2014-Oct-24 19:14N 53°40' E 009°31'812.7
2014-Oct-24 18:33N 53°34' E 009°40'1110.6
2014-Oct-24 17:33N 53°31' E 009°57'0 0.5
2014-Oct-24 16:33N 53°30' E 009°58'0 0.0
2014-Oct-24 15:33N 53°30' E 009°58'0 0.0
2014-Oct-24 14:33N 53°30' E 009°58'0 0.0
2014-Oct-24 13:33N 53°30' E 009°58'0 0.0
2014-Oct-24 12:33N 53°30' E 009°58'0 0.0
2014-Oct-24 11:33N 53°30' E 009°58'0 0.0
2014-Oct-24 10:33N 53°30' E 009°58'0 0.0
2014-Oct-24 09:33N 53°30' E 009°58'0 0.0
2014-Oct-24 08:33N 53°30' E 009°58'0 0.0
2014-Oct-24 07:33N 53°30' E 009°58'0 0.0
2014-Oct-24 06:33N 53°30' E 009°58'0 0.0
2014-Oct-24 05:33N 53°30' E 009°58'0 0.0
2014-Oct-24 04:33N 53°30' E 009°58'0 0.0
2014-Oct-24 03:33N 53°30' E 009°58'0 0.0
2014-Oct-24 02:33N 53°30' E 009°58'0 0.0
2014-Oct-24 01:33N 53°30' E 009°58'0 0.0
2014-Oct-24 00:33N 53°30' E 009°58'0 0.0
2014-Oct-23 23:33N 53°30' E 009°58'0 0.0
2014-Oct-23 22:33N 53°30' E 009°58'0 0.0
2014-Oct-23 21:33N 53°30' E 009°58'0 0.0
2014-Oct-23 20:33N 53°30' E 009°58'0 0.0
2014-Oct-23 19:33N 53°30' E 009°58'0 0.0
2014-Oct-23 18:33N 53°30' E 009°58'0 0.0
2014-Oct-23 17:33N 53°30' E 009°58'0 0.0
2014-Oct-23 16:33N 53°30' E 009°58'0 0.0
2014-Oct-23 15:33N 53°30' E 009°58'0 0.0
2014-Oct-23 14:33N 53°30' E 009°58'0 0.0
2014-Oct-23 13:33N 53°30' E 009°58'0 0.2
2014-Oct-23 12:33N 53°30' E 009°57'9 9.3
2014-Oct-23 11:33N 53°34' E 009°43'2912.7
2014-Oct-23 09:16N 53°52' E 009°05'913.1
2014-Oct-23 08:33N 53°50' E 008°50'1312.3
2014-Oct-23 07:32N 53°58' E 008°33'1712.5
2014-Oct-23 06:10N 53°58' E 008°04'6310.4
2014-Oct-23 00:08N 53°38' E 006°23'710.7
2014-Oct-22 23:31N 53°36' E 006°34'1111.6
2014-Oct-22 22:33N 53°30' E 006°49'8 7.8
2014-Oct-22 21:33N 53°24' E 006°57'5 5.2
2014-Oct-22 20:34N 53°19' E 007°02'0 0.0
2014-Oct-22 19:34N 53°19' E 007°02'0 0.0
2014-Oct-22 18:34N 53°19' E 007°02'0 0.0
2014-Oct-22 17:33N 53°19' E 007°02'0 0.1
2014-Oct-22 16:33N 53°19' E 007°02'0 0.0
2014-Oct-22 15:34N 53°19' E 007°02'0 0.0
2014-Oct-22 14:33N 53°19' E 007°02'0 0.0
2014-Oct-22 13:34N 53°19' E 007°02'0 0.0
2014-Oct-22 12:33N 53°19' E 007°02'0 0.0
2014-Oct-22 11:34N 53°19' E 007°02'0 0.0
2014-Oct-22 10:34N 53°19' E 007°02'0 0.2
2014-Oct-22 09:33N 53°19' E 007°02'0 0.0
2014-Oct-22 08:34N 53°19' E 007°02'0 0.0
2014-Oct-22 07:33N 53°19' E 007°02'0 0.0
2014-Oct-22 06:33N 53°19' E 007°02'0 0.1
2014-Oct-22 05:34N 53°19' E 007°02'0 0.0
2014-Oct-22 04:33N 53°19' E 007°02'0 0.1
2014-Oct-22 03:34N 53°19' E 007°01'0 0.1
2014-Oct-22 02:33N 53°19' E 007°02'0 0.1
2014-Oct-22 01:34N 53°19' E 007°02'0 0.1
2014-Oct-22 00:34N 53°19' E 007°02'0 0.0
2014-Oct-21 23:34N 53°19' E 007°02'0 0.0
2014-Oct-21 22:34N 53°19' E 007°02'0 0.0
2014-Oct-21 21:33N 53°19' E 007°02'0 0.0
2014-Oct-21 20:34N 53°19' E 007°02'0 0.0
2014-Oct-21 19:33N 53°19' E 007°02'0 0.0
2014-Oct-21 18:33N 53°19' E 007°02'0 0.0
2014-Oct-21 17:33N 53°19' E 007°02'0 0.0
2014-Oct-21 16:34N 53°19' E 007°02'0 0.0
2014-Oct-21 15:33N 53°19' E 007°02'0 0.1
2014-Oct-21 14:33N 53°19' E 007°02'0 0.0
2014-Oct-21 13:34N 53°19' E 007°01'0 0.0
2014-Oct-21 12:33N 53°19' E 007°01'0 0.0
2014-Oct-21 11:34N 53°19' E 007°01'0 0.0
2014-Oct-21 10:34N 53°19' E 007°02'0 0.0
2014-Oct-21 09:34N 53°19' E 007°02'0 0.1
2014-Oct-21 08:33N 53°19' E 007°02'0 0.0
2014-Oct-21 07:33N 53°19' E 007°02'0 0.0
2014-Oct-21 06:34N 53°19' E 007°02'0 0.0
2014-Oct-21 05:33N 53°19' E 007°02'0 0.0
2014-Oct-21 04:34N 53°19' E 007°02'0 0.1
2014-Oct-21 03:34N 53°19' E 007°01'0 0.0
2014-Oct-21 02:33N 53°19' E 007°01'0 0.0
2014-Oct-21 01:33N 53°19' E 007°01'0 0.0
2014-Oct-21 00:34N 53°19' E 007°01'0 0.0
2014-Oct-20 23:33N 53°19' E 007°01'0 0.0
2014-Oct-20 22:34N 53°19' E 007°02'  
Track history (hours):
 
Tides and Currents Weather Stations Pressure Air Temp Water Temp Dewpoint Dewpoint Depression Visibility Wind Speed Wind Dir Waves Ship Positions

Maimiti

Last reported at 2014-Oct-30 22:33 UTC. Time now 2014-Oct-30 22:51 UTC.
Position N 51°23' E 004°03'.

Length 87 m; draft 4.4 m.

Type: Cargo ship. MMSI: 244312000.

Date/timePositionNaut miles runAvg speedWind from/ knotsBaromVisibWave heightAir tempDewpointWater temp
2014-Oct-30 22:33N 51°23' E 004°03'9 9.4
2014-Oct-30 21:34N 51°19' E 004°16'3 2.9
2014-Oct-30 20:31N 51°17' E 004°20'1 1.0
2014-Oct-30 19:33N 51°16' E 004°21'2 2.1
2014-Oct-30 18:33N 51°15' E 004°24'0 0.0
2014-Oct-30 17:33N 51°15' E 004°24'0 0.0
2014-Oct-30 16:33N 51°15' E 004°24'0 0.0
2014-Oct-30 15:33N 51°15' E 004°24'0 0.0
2014-Oct-30 14:33N 51°15' E 004°24'0 0.0
2014-Oct-30 13:33N 51°15' E 004°24'0 0.0
2014-Oct-30 12:33N 51°15' E 004°24'0 0.0
2014-Oct-30 11:33N 51°15' E 004°24'0 0.0
2014-Oct-30 10:33N 51°15' E 004°24'0 0.0
2014-Oct-30 09:33N 51°15' E 004°24'0 0.0
2014-Oct-30 08:33N 51°15' E 004°24'0 0.0
2014-Oct-30 07:33N 51°15' E 004°24'0 0.0
2014-Oct-30 06:33N 51°15' E 004°24'0 0.0
2014-Oct-30 05:33N 51°15' E 004°24'0 0.0
2014-Oct-30 04:33N 51°15' E 004°24'0 0.0
2014-Oct-30 03:33N 51°15' E 004°24'0 0.0
2014-Oct-30 02:33N 51°15' E 004°24'0 0.0
2014-Oct-30 01:33N 51°15' E 004°24'0 0.0
2014-Oct-30 00:33N 51°15' E 004°24'0 0.0
2014-Oct-29 23:33N 51°15' E 004°24'0 0.0
2014-Oct-29 22:33N 51°15' E 004°24'0 0.0
2014-Oct-29 21:33N 51°15' E 004°24'0 0.0
2014-Oct-29 20:33N 51°15' E 004°24'0 0.0
2014-Oct-29 19:33N 51°15' E 004°24'0 0.0
2014-Oct-29 18:33N 51°15' E 004°24'0 0.0
2014-Oct-29 17:33N 51°15' E 004°24'0 0.0
2014-Oct-29 16:33N 51°15' E 004°24'0 0.0
2014-Oct-29 15:33N 51°15' E 004°24'0 0.0
2014-Oct-29 14:33N 51°15' E 004°24'0 0.0
2014-Oct-29 13:33N 51°15' E 004°24'0 0.0
2014-Oct-29 12:33N 51°15' E 004°24'0 0.0
2014-Oct-29 11:33N 51°15' E 004°24'1 1.3
2014-Oct-29 10:33N 51°15' E 004°22'7 6.3
2014-Oct-29 09:31N 51°21' E 004°17'0 0.0
2014-Oct-29 08:33N 51°21' E 004°17'1 1.0
2014-Oct-29 07:33N 51°21' E 004°16'5 5.2
2014-Oct-29 06:33N 51°22' E 004°08'7 6.6
2014-Oct-29 05:33N 51°25' E 003°58'9 9.5
2014-Oct-29 04:33N 51°23' E 003°44'1111.3
2014-Oct-29 03:33N 51°30' E 003°29'1611.5
2014-Oct-29 02:10N 51°43' E 003°14'5511.0
2014-Oct-28 21:08N 52°19' E 002°06'711.5
2014-Oct-28 20:33N 52°24' E 002°00'1111.3
2014-Oct-28 19:33N 52°33' E 001°49'4 3.6
2014-Oct-28 18:33N 52°35' E 001°44'0 0.0
2014-Oct-28 17:33N 52°35' E 001°44'0 0.0
2014-Oct-28 16:33N 52°35' E 001°44'0 0.0
2014-Oct-28 15:33N 52°35' E 001°44'0 0.0
2014-Oct-28 14:33N 52°35' E 001°44'0 0.0
2014-Oct-28 13:33N 52°35' E 001°44'0 0.0
2014-Oct-28 12:33N 52°35' E 001°44'0 0.0
2014-Oct-28 11:33N 52°35' E 001°44'0 0.0
2014-Oct-28 10:33N 52°35' E 001°44'0 0.0
2014-Oct-28 09:33N 52°35' E 001°44'0 0.0
2014-Oct-28 08:33N 52°35' E 001°44'0 0.0
2014-Oct-28 07:33N 52°35' E 001°44'0 0.0
2014-Oct-28 06:33N 52°35' E 001°44'0 0.0
2014-Oct-28 05:33N 52°35' E 001°44'0 0.0
2014-Oct-28 04:33N 52°35' E 001°44'0 0.0
2014-Oct-28 03:34N 52°35' E 001°44'0 0.0
2014-Oct-28 02:33N 52°35' E 001°44'0 0.0
2014-Oct-28 01:33N 52°35' E 001°44'0 0.0
2014-Oct-28 00:33N 52°35' E 001°44'0 0.0
2014-Oct-27 23:33N 52°35' E 001°44'0 0.0
2014-Oct-27 22:33N 52°35' E 001°44'0 0.0
2014-Oct-27 21:33N 52°35' E 001°44'0 0.0
2014-Oct-27 20:33N 52°35' E 001°44'0 0.0
2014-Oct-27 19:33N 52°35' E 001°44'0 0.0
2014-Oct-27 18:33N 52°35' E 001°44'0 0.0
2014-Oct-27 17:33N 52°35' E 001°44'0 0.0
2014-Oct-27 16:33N 52°35' E 001°44'0 0.0
2014-Oct-27 15:33N 52°35' E 001°44'0 0.0
2014-Oct-27 14:33N 52°35' E 001°44'0 0.0
2014-Oct-27 13:33N 52°35' E 001°44'0 0.0
2014-Oct-27 12:33N 52°35' E 001°44'0 0.0
2014-Oct-27 11:33N 52°35' E 001°44'0 0.0
2014-Oct-27 10:33N 52°35' E 001°44'0 0.0
2014-Oct-27 09:33N 52°35' E 001°44'0 0.0
2014-Oct-27 08:33N 52°35' E 001°44'0 0.0
2014-Oct-27 07:33N 52°35' E 001°44'0 0.0
2014-Oct-27 06:33N 52°35' E 001°44'0 0.0
2014-Oct-27 05:33N 52°35' E 001°44'0 0.0
2014-Oct-27 04:33N 52°35' E 001°44'0 0.0
2014-Oct-27 03:33N 52°35' E 001°44'0 0.0
2014-Oct-27 02:33N 52°35' E 001°44'0 0.0
2014-Oct-27 01:33N 52°35' E 001°44'0 0.0
2014-Oct-27 00:34N 52°35' E 001°44'0 0.0
2014-Oct-26 23:33N 52°35' E 001°44'0 0.0
2014-Oct-26 22:33N 52°35' E 001°44'0 0.0
2014-Oct-26 21:33N 52°35' E 001°44'0 0.0
2014-Oct-26 20:33N 52°35' E 001°44'0 0.0
2014-Oct-26 19:33N 52°35' E 001°44'0 0.0
2014-Oct-26 18:33N 52°35' E 001°44'0 0.0
2014-Oct-26 17:33N 52°35' E 001°44'0 0.0
2014-Oct-26 16:33N 52°35' E 001°44'0 0.0
2014-Oct-26 15:33N 52°35' E 001°44'0 0.0
2014-Oct-26 14:33N 52°35' E 001°44'0 0.0
2014-Oct-26 13:33N 52°35' E 001°44'0 0.0
2014-Oct-26 12:33N 52°35' E 001°44'2 1.5
2014-Oct-26 11:33N 52°34' E 001°45'0 0.4
2014-Oct-26 10:33N 52°33' E 001°45'0 0.0
2014-Oct-26 09:33N 52°33' E 001°45'0 0.0
2014-Oct-26 08:33N 52°33' E 001°45'0 0.0
2014-Oct-26 07:33N 52°33' E 001°45'0 0.1
2014-Oct-26 06:33N 52°33' E 001°45'0 0.2
2014-Oct-26 05:33N 52°33' E 001°45'0 0.0
2014-Oct-26 04:33N 52°34' E 001°45'0 0.0
2014-Oct-26 03:33N 52°33' E 001°45'0 0.0
2014-Oct-26 02:33N 52°33' E 001°45'0 0.0
2014-Oct-26 01:33N 52°33' E 001°45'4 4.3
2014-Oct-26 00:33N 52°33' E 001°52'12310.2
2014-Oct-25 12:33N 53°32' E 004°52'1111.2
2014-Oct-25 11:33N 53°35' E 005°10'1110.7
2014-Oct-25 10:33N 53°38' E 005°27'1010.0
2014-Oct-25 09:33N 53°42' E 005°43'6510.1
2014-Oct-25 03:09N 53°60' E 007°29'710.9
2014-Oct-25 02:33N 54°01' E 007°39'1110.8
2014-Oct-25 01:33N 54°02' E 007°58'1010.3
2014-Oct-25 00:33N 54°01' E 008°15'1010.1
2014-Oct-24 23:33N 53°58' E 008°32'8 8.2
2014-Oct-24 22:33N 53°53' E 008°42'8 7.6
2014-Oct-24 21:33N 53°51' E 008°55'1210.8
2014-Oct-24 20:29N 53°53' E 009°14'1612.6
2014-Oct-24 19:14N 53°40' E 009°31'812.7
2014-Oct-24 18:33N 53°34' E 009°40'1110.6
2014-Oct-24 17:33N 53°31' E 009°57'0 0.5
2014-Oct-24 16:33N 53°30' E 009°58'0 0.0
2014-Oct-24 15:33N 53°30' E 009°58'0 0.0
2014-Oct-24 14:33N 53°30' E 009°58'0 0.0
2014-Oct-24 13:33N 53°30' E 009°58'0 0.0
2014-Oct-24 12:33N 53°30' E 009°58'0 0.0
2014-Oct-24 11:33N 53°30' E 009°58'0 0.0
2014-Oct-24 10:33N 53°30' E 009°58'0 0.0
2014-Oct-24 09:33N 53°30' E 009°58'0 0.0
2014-Oct-24 08:33N 53°30' E 009°58'0 0.0
2014-Oct-24 07:33N 53°30' E 009°58'0 0.0
2014-Oct-24 06:33N 53°30' E 009°58'0 0.0
2014-Oct-24 05:33N 53°30' E 009°58'0 0.0
2014-Oct-24 04:33N 53°30' E 009°58'0 0.0
2014-Oct-24 03:33N 53°30' E 009°58'0 0.0
2014-Oct-24 02:33N 53°30' E 009°58'0 0.0
2014-Oct-24 01:33N 53°30' E 009°58'0 0.0
2014-Oct-24 00:33N 53°30' E 009°58'0 0.0
2014-Oct-23 23:33N 53°30' E 009°58'0 0.0
2014-Oct-23 22:33N 53°30' E 009°58'0 0.0
2014-Oct-23 21:33N 53°30' E 009°58'0 0.0
2014-Oct-23 20:33N 53°30' E 009°58'0 0.0
2014-Oct-23 19:33N 53°30' E 009°58'0 0.0
2014-Oct-23 18:33N 53°30' E 009°58'0 0.0
2014-Oct-23 17:33N 53°30' E 009°58'0 0.0
2014-Oct-23 16:33N 53°30' E 009°58'0 0.0
2014-Oct-23 15:33N 53°30' E 009°58'0 0.0
2014-Oct-23 14:33N 53°30' E 009°58'0 0.0
2014-Oct-23 13:33N 53°30' E 009°58'0 0.2
2014-Oct-23 12:33N 53°30' E 009°57'9 9.3
2014-Oct-23 11:33N 53°34' E 009°43'2912.7
2014-Oct-23 09:16N 53°52' E 009°05'913.1
2014-Oct-23 08:33N 53°50' E 008°50'1312.3
2014-Oct-23 07:32N 53°58' E 008°33'1712.5
2014-Oct-23 06:10N 53°58' E 008°04'6310.4
2014-Oct-23 00:08N 53°38' E 006°23'710.7
2014-Oct-22 23:31N 53°36' E 006°34'1111.6
2014-Oct-22 22:33N 53°30' E 006°49'8 7.8
2014-Oct-22 21:33N 53°24' E 006°57'5 5.2
2014-Oct-22 20:34N 53°19' E 007°02'0 0.0
2014-Oct-22 19:34N 53°19' E 007°02'0 0.0
2014-Oct-22 18:34N 53°19' E 007°02'0 0.0
2014-Oct-22 17:33N 53°19' E 007°02'0 0.1
2014-Oct-22 16:33N 53°19' E 007°02'0 0.0
2014-Oct-22 15:34N 53°19' E 007°02'0 0.0
2014-Oct-22 14:33N 53°19' E 007°02'0 0.0
2014-Oct-22 13:34N 53°19' E 007°02'0 0.0
2014-Oct-22 12:33N 53°19' E 007°02'0 0.0
2014-Oct-22 11:34N 53°19' E 007°02'0 0.0
2014-Oct-22 10:34N 53°19' E 007°02'0 0.2
2014-Oct-22 09:33N 53°19' E 007°02'0 0.0
2014-Oct-22 08:34N 53°19' E 007°02'0 0.0
2014-Oct-22 07:33N 53°19' E 007°02'0 0.0
2014-Oct-22 06:33N 53°19' E 007°02'0 0.1
2014-Oct-22 05:34N 53°19' E 007°02'0 0.0
2014-Oct-22 04:33N 53°19' E 007°02'0 0.1
2014-Oct-22 03:34N 53°19' E 007°01'0 0.1
2014-Oct-22 02:33N 53°19' E 007°02'0 0.1
2014-Oct-22 01:34N 53°19' E 007°02'0 0.1
2014-Oct-22 00:34N 53°19' E 007°02'0 0.0
2014-Oct-21 23:34N 53°19' E 007°02'0 0.0
2014-Oct-21 22:34N 53°19' E 007°02'0 0.0
2014-Oct-21 21:33N 53°19' E 007°02'0 0.0
2014-Oct-21 20:34N 53°19' E 007°02'0 0.0
2014-Oct-21 19:33N 53°19' E 007°02'0 0.0
2014-Oct-21 18:33N 53°19' E 007°02'0 0.0
2014-Oct-21 17:33N 53°19' E 007°02'0 0.0
2014-Oct-21 16:34N 53°19' E 007°02'0 0.0
2014-Oct-21 15:33N 53°19' E 007°02'0 0.1
2014-Oct-21 14:33N 53°19' E 007°02'0 0.0
2014-Oct-21 13:34N 53°19' E 007°01'0 0.0
2014-Oct-21 12:33N 53°19' E 007°01'0 0.0
2014-Oct-21 11:34N 53°19' E 007°01'0 0.0
2014-Oct-21 10:34N 53°19' E 007°02'0 0.0
2014-Oct-21 09:34N 53°19' E 007°02'0 0.1
2014-Oct-21 08:33N 53°19' E 007°02'0 0.0
2014-Oct-21 07:33N 53°19' E 007°02'0 0.0
2014-Oct-21 06:34N 53°19' E 007°02'0 0.0
2014-Oct-21 05:33N 53°19' E 007°02'0 0.0
2014-Oct-21 04:34N 53°19' E 007°02'0 0.1
2014-Oct-21 03:34N 53°19' E 007°01'0 0.0
2014-Oct-21 02:33N 53°19' E 007°01'0 0.0
2014-Oct-21 01:33N 53°19' E 007°01'0 0.0
2014-Oct-21 00:34N 53°19' E 007°01'0 0.0
2014-Oct-20 23:33N 53°19' E 007°01'0 0.0
2014-Oct-20 22:34N 53°19' E 007°02'  

Dump ship's entire track history